createdAt,value
2024-05-09T00:01:51.282Z,100353.73
2024-05-09T00:04:22.905Z,100354.46
2024-05-09T00:06:53.347Z,100357.85
2024-05-09T00:09:25.021Z,100362.95
2024-05-09T00:11:55.609Z,100361.88
2024-05-09T00:14:27.508Z,100362.12
2024-05-09T00:16:58.288Z,100359.38
2024-05-09T00:19:30.040Z,100356.95
2024-05-09T00:22:00.511Z,100356.17
2024-05-09T00:24:32.187Z,100359.07
2024-05-09T00:27:02.591Z,100364.66
2024-05-09T00:29:34.431Z,100364.18
2024-05-09T00:32:05.565Z,100362.66
2024-05-09T00:34:37.371Z,100358.66
2024-05-09T00:37:07.878Z,100359.31
2024-05-09T00:39:39.754Z,100354.27
2024-05-09T00:42:10.056Z,100355.11
2024-05-09T00:44:41.956Z,100357.41
2024-05-09T00:47:12.417Z,100352.73
2024-05-09T00:49:44.217Z,100353.40
2024-05-09T00:52:14.630Z,100353.74
2024-05-09T00:54:46.296Z,100353.54
2024-05-09T00:57:16.991Z,100350.74
2024-05-09T00:59:48.685Z,100354.06
2024-05-09T01:02:19.171Z,100362.09
2024-05-09T01:04:53.541Z,100359.61
2024-05-09T01:07:26.328Z,100358.44
2024-05-09T01:09:56.730Z,100356.79
2024-05-09T01:12:28.311Z,100357.23
2024-05-09T01:14:58.832Z,100357.61
2024-05-09T01:17:30.536Z,100357.60
2024-05-09T01:20:01.361Z,100357.90
2024-05-09T01:22:33.055Z,100357.61
2024-05-09T01:25:03.802Z,100362.18
2024-05-09T01:27:35.270Z,100363.27
2024-05-09T01:30:09.542Z,100364.22
2024-05-09T01:32:46.639Z,100361.35
2024-05-09T01:35:17.425Z,100362.58
2024-05-09T01:37:49.745Z,100359.91
2024-05-09T01:40:25.358Z,100360.63
2024-05-09T01:43:05.930Z,100360.44
2024-05-09T01:45:36.186Z,100361.80
2024-05-09T01:48:08.716Z,100359.91
2024-05-09T01:50:41.960Z,100361.46
2024-05-09T01:53:15.444Z,100362.33
2024-05-09T01:55:46.024Z,100363.49
2024-05-09T01:58:18.051Z,100364.45
2024-05-09T02:00:48.972Z,100364.85
2024-05-09T02:03:21.050Z,100365.05
2024-05-09T02:05:51.522Z,100364.52
2024-05-09T02:08:23.266Z,100361.02
2024-05-09T02:10:54.066Z,100359.01
2024-05-09T02:13:25.116Z,100363.31
2024-05-09T02:15:55.917Z,100362.13
2024-05-09T02:18:27.560Z,100357.86
2024-05-09T02:20:57.767Z,100356.11
2024-05-09T02:23:29.597Z,100355.00
2024-05-09T02:26:00.260Z,100351.20
2024-05-09T02:28:32.280Z,100349.47
2024-05-09T02:31:02.403Z,100350.25
2024-05-09T02:33:34.250Z,100350.14
2024-05-09T02:36:05.837Z,100355.04
2024-05-09T02:38:37.531Z,100355.39
2024-05-09T02:41:08.710Z,100355.21
2024-05-09T02:43:40.494Z,100357.08
2024-05-09T02:46:10.883Z,100357.23
2024-05-09T02:48:42.744Z,100355.67
2024-05-09T02:51:13.217Z,100359.36
2024-05-09T02:53:44.995Z,100361.38
2024-05-09T02:56:15.511Z,100368.65
2024-05-09T02:58:47.413Z,100370.01
2024-05-09T03:01:18.270Z,100370.81
2024-05-09T03:03:51.416Z,100375.23
2024-05-09T03:06:22.007Z,100372.17
2024-05-09T03:08:53.542Z,100371.86
2024-05-09T03:11:24.174Z,100372.71
2024-05-09T03:13:55.878Z,100375.22
2024-05-09T03:16:26.342Z,100375.23
2024-05-09T03:18:57.868Z,100380.77
2024-05-09T03:21:28.757Z,100376.13
2024-05-09T03:24:00.407Z,100374.55
2024-05-09T03:26:30.985Z,100377.08
2024-05-09T03:29:02.645Z,100379.61
2024-05-09T03:31:33.410Z,100381.19
2024-05-09T03:34:05.142Z,100379.66
2024-05-09T03:36:35.596Z,100377.08
2024-05-09T03:39:07.367Z,100374.27
2024-05-09T03:41:38.152Z,100376.73
2024-05-09T03:44:09.666Z,100374.63
2024-05-09T03:46:40.430Z,100376.35
2024-05-09T03:49:12.210Z,100379.93
2024-05-09T03:51:42.862Z,100377.75
2024-05-09T03:54:14.730Z,100382.02
2024-05-09T03:56:46.267Z,100378.02
2024-05-09T03:59:17.869Z,100380.48
2024-05-09T04:01:49.275Z,100383.30
2024-05-09T04:04:21.131Z,100386.65
2024-05-09T04:06:51.879Z,100385.15
2024-05-09T04:09:23.740Z,100385.34
2024-05-09T04:11:54.215Z,100387.10
2024-05-09T04:14:26.154Z,100386.92
2024-05-09T04:16:56.793Z,100388.11
2024-05-09T04:19:28.712Z,100392.35
2024-05-09T04:21:59.253Z,100391.41
2024-05-09T04:24:31.222Z,100393.96
2024-05-09T04:27:01.843Z,100396.87
2024-05-09T04:29:37.521Z,100397.17
2024-05-09T04:32:09.921Z,100403.90
2024-05-09T04:34:41.120Z,100409.30
2024-05-09T04:37:12.861Z,100407.41
2024-05-09T04:39:43.081Z,100410.15
2024-05-09T04:42:15.044Z,100409.56
2024-05-09T04:44:45.366Z,100408.74
2024-05-09T04:47:17.293Z,100405.61
2024-05-09T04:49:48.394Z,100409.51
2024-05-09T04:52:19.943Z,100415.17
2024-05-09T04:54:50.458Z,100415.48
2024-05-09T04:57:21.902Z,100412.59
2024-05-09T04:59:52.439Z,100415.20
2024-05-09T05:02:24.024Z,100419.98
2024-05-09T05:04:54.797Z,100421.07
2024-05-09T05:07:26.583Z,100419.79
2024-05-09T05:09:57.426Z,100424.60
2024-05-09T05:12:47.616Z,100429.80
2024-05-09T05:15:20.502Z,100431.05
2024-05-09T05:17:51.193Z,100430.34
2024-05-09T05:20:30.660Z,100431.79
2024-05-09T05:23:08.112Z,100434.59
2024-05-09T05:25:41.351Z,100432.83
2024-05-09T05:28:11.777Z,100435.32
2024-05-09T05:30:43.520Z,100438.83
2024-05-09T05:33:14.568Z,100438.09
2024-05-09T05:35:47.153Z,100437.33
2024-05-09T05:38:17.934Z,100434.33
2024-05-09T05:40:49.892Z,100434.54
2024-05-09T05:43:20.691Z,100429.95
2024-05-09T05:45:52.438Z,100431.71
2024-05-09T05:48:23.192Z,100426.48
2024-05-09T05:50:55.329Z,100428.69
2024-05-09T05:53:26.006Z,100433.15
2024-05-09T05:55:57.763Z,100434.18
2024-05-09T05:58:28.261Z,100433.48
2024-05-09T06:00:59.739Z,100432.98
2024-05-09T06:03:30.629Z,100430.44
2024-05-09T06:06:03.250Z,100427.16
2024-05-09T06:08:33.989Z,100423.80
2024-05-09T06:11:05.724Z,100421.83
2024-05-09T06:13:36.446Z,100422.18
2024-05-09T06:16:08.103Z,100421.23
2024-05-09T06:18:38.857Z,100425.55
2024-05-09T06:21:10.639Z,100426.73
2024-05-09T06:23:47.730Z,100422.16
2024-05-09T06:26:19.555Z,100425.08
2024-05-09T06:28:49.793Z,100426.70
2024-05-09T06:31:21.407Z,100427.13
2024-05-09T06:33:52.014Z,100429.09
2024-05-09T06:36:24.025Z,100427.81
2024-05-09T06:38:54.335Z,100426.96
2024-05-09T06:41:26.589Z,100426.27
2024-05-09T06:43:56.849Z,100428.68
2024-05-09T06:46:29.554Z,100427.24
2024-05-09T06:49:06.018Z,100426.71
2024-05-09T06:51:38.459Z,100431.39
2024-05-09T06:54:08.869Z,100434.63
2024-05-09T06:56:40.586Z,100434.05
2024-05-09T06:59:11.300Z,100432.03
2024-05-09T07:01:43.543Z,100435.06
2024-05-09T07:04:14.041Z,100434.74
2024-05-09T07:06:46.120Z,100430.60
2024-05-09T07:09:16.453Z,100430.87
2024-05-09T07:11:48.331Z,100424.55
2024-05-09T07:14:18.808Z,100424.35
2024-05-09T07:16:51.285Z,100424.11
2024-05-09T07:19:22.066Z,100425.64
2024-05-09T07:21:53.902Z,100426.34
2024-05-09T07:24:24.220Z,100427.02
2024-05-09T07:26:56.802Z,100425.92
2024-05-09T07:29:27.318Z,100421.71
2024-05-09T07:31:59.017Z,100422.46
2024-05-09T07:34:29.605Z,100418.52
2024-05-09T07:37:02.310Z,100421.52
2024-05-09T07:39:32.614Z,100418.05
2024-05-09T07:42:04.589Z,100419.64
2024-05-09T07:44:35.242Z,100416.16
2024-05-09T07:48:14.505Z,100418.42
2024-05-09T07:51:48.014Z,100417.41
2024-05-09T07:53:35.363Z,100413.55
2024-05-09T07:55:43.165Z,100413.15
2024-05-09T07:58:13.710Z,100414.38
2024-05-09T08:00:45.460Z,100414.89
2024-05-09T08:03:16.145Z,100411.80
2024-05-09T08:05:47.892Z,100408.73
2024-05-09T08:08:18.471Z,100409.17
2024-05-09T08:10:50.702Z,100408.52
2024-05-09T08:13:21.195Z,100407.42
2024-05-09T08:15:53.593Z,100408.80
2024-05-09T08:18:24.328Z,100410.77
2024-05-09T08:20:56.645Z,100404.55
2024-05-09T08:23:26.874Z,100407.67
2024-05-09T08:25:58.523Z,100409.91
2024-05-09T08:28:28.983Z,100408.96
2024-05-09T08:31:01.743Z,100407.33
2024-05-09T08:33:36.474Z,100402.91
2024-05-09T08:36:07.505Z,100399.67
2024-05-09T08:38:39.461Z,100394.37
2024-05-09T08:41:13.267Z,100395.80
2024-05-09T08:43:45.125Z,100390.02
2024-05-09T08:46:15.672Z,100396.61
2024-05-09T08:48:47.914Z,100388.30
2024-05-09T08:51:18.245Z,100386.76
2024-05-09T08:53:50.414Z,100391.40
2024-05-09T08:56:20.635Z,100391.96
2024-05-09T08:58:53.422Z,100390.91
2024-05-09T09:01:23.780Z,100389.04
2024-05-09T09:03:55.746Z,100393.55
2024-05-09T09:06:26.049Z,100390.31
2024-05-09T09:08:57.696Z,100397.35
2024-05-09T09:11:28.042Z,100393.46
2024-05-09T09:14:00.095Z,100393.17
2024-05-09T09:16:34.189Z,100392.81
2024-05-09T09:19:06.868Z,100391.41
2024-05-09T09:21:37.635Z,100389.27
2024-05-09T09:24:10.088Z,100392.85
2024-05-09T09:26:40.910Z,100400.94
2024-05-09T09:29:12.979Z,100398.54
2024-05-09T09:31:43.401Z,100397.71
2024-05-09T09:34:15.285Z,100394.66
2024-05-09T09:36:45.829Z,100388.73
2024-05-09T09:39:17.544Z,100396.55
2024-05-09T09:41:47.986Z,100392.48
2024-05-09T09:44:19.635Z,100393.55
2024-05-09T09:46:50.323Z,100392.86
2024-05-09T09:49:25.384Z,100388.66
2024-05-09T09:51:58.067Z,100388.62
2024-05-09T09:54:29.290Z,100384.19
2024-05-09T09:57:01.314Z,100381.46
2024-05-09T09:59:31.723Z,100384.17
2024-05-09T10:02:04.180Z,100382.02
2024-05-09T10:04:34.813Z,100378.00
2024-05-09T10:07:07.828Z,100378.88
2024-05-09T10:09:38.163Z,100374.54
2024-05-09T10:12:13.777Z,100371.73
2024-05-09T10:14:48.034Z,100375.15
2024-05-09T10:17:18.366Z,100374.11
2024-05-09T10:19:51.085Z,100367.65
2024-05-09T10:25:27.275Z,100366.67
2024-05-09T10:27:58.171Z,100367.29
2024-05-09T10:30:35.713Z,100363.83
2024-05-09T10:33:10.281Z,100367.48
2024-05-09T10:35:40.445Z,100366.06
2024-05-09T10:38:12.413Z,100363.57
2024-05-09T10:40:42.597Z,100357.38
2024-05-09T10:43:17.851Z,100354.29
2024-05-09T10:45:50.579Z,100348.20
2024-05-09T10:48:21.346Z,100346.55
2024-05-09T10:50:53.091Z,100345.77
2024-05-09T10:53:23.386Z,100342.14
2024-05-09T10:55:58.297Z,100339.30
2024-05-09T10:58:30.976Z,100339.45
2024-05-09T11:01:04.365Z,100335.54
2024-05-09T11:03:39.011Z,100333.85
2024-05-09T11:06:11.366Z,100332.61
2024-05-09T11:08:44.049Z,100328.47
2024-05-09T11:11:14.276Z,100327.73
2024-05-09T11:13:46.135Z,100332.89
2024-05-09T11:16:19.372Z,100328.61
2024-05-09T11:18:55.563Z,100327.27
2024-05-09T11:21:27.469Z,100321.43
2024-05-09T11:23:57.578Z,100320.42
2024-05-09T11:26:29.725Z,100311.67
2024-05-09T11:29:00.163Z,100323.14
2024-05-09T11:31:32.149Z,100321.31
2024-05-09T11:34:02.491Z,100315.79
2024-05-09T11:36:34.467Z,100308.02
2024-05-09T11:39:04.728Z,100308.55
2024-05-09T11:41:36.498Z,100307.06
2024-05-09T11:44:06.719Z,100312.81
2024-05-09T11:46:38.469Z,100306.27
2024-05-09T11:49:09.582Z,100304.19
2024-05-09T11:51:41.496Z,100307.05
2024-05-09T11:54:11.917Z,100309.70
2024-05-09T11:56:43.862Z,100305.90
2024-05-09T11:59:14.386Z,100301.86
2024-05-09T12:01:46.200Z,100304.57
2024-05-09T12:04:17.006Z,100301.01
2024-05-09T12:06:48.891Z,100304.09
2024-05-09T12:09:19.290Z,100308.20
2024-05-09T12:11:51.207Z,100303.88
2024-05-09T12:14:21.653Z,100298.42
2024-05-09T12:16:53.551Z,100291.91
2024-05-09T12:19:24.085Z,100289.54
2024-05-09T12:21:55.765Z,100284.00
2024-05-09T12:24:28.960Z,100284.52
2024-05-09T12:27:00.867Z,100281.83
2024-05-09T12:29:31.283Z,100280.25
2024-05-09T12:32:03.203Z,100278.73
2024-05-09T12:34:34.164Z,100272.54
2024-05-09T12:37:05.980Z,100274.35
2024-05-09T12:39:36.763Z,100270.75
2024-05-09T12:42:09.713Z,100265.33
2024-05-09T12:44:40.192Z,100263.98
2024-05-09T12:47:11.850Z,100259.68
2024-05-09T12:49:42.402Z,100262.77
2024-05-09T12:52:14.101Z,100256.78
2024-05-09T12:54:44.580Z,100258.54
2024-05-09T12:57:16.215Z,100255.92
2024-05-09T12:59:47.168Z,100252.84
2024-05-09T13:02:19.193Z,100253.73
2024-05-09T13:04:49.719Z,100253.95
2024-05-09T13:07:21.556Z,100251.62
2024-05-09T13:09:52.153Z,100248.02
2024-05-09T13:12:25.024Z,100253.88
2024-05-09T13:14:55.651Z,100249.14
2024-05-09T13:17:27.316Z,100247.91
2024-05-09T13:19:58.043Z,100244.44
2024-05-09T13:22:29.716Z,100240.02
2024-05-09T13:25:00.389Z,100237.52
2024-05-09T13:27:32.251Z,100234.33
2024-05-09T13:32:34.803Z,100229.20
2024-05-09T13:35:05.503Z,100225.04
2024-05-09T13:37:37.169Z,100225.59
2024-05-09T13:40:11.992Z,100220.61
2024-05-09T13:42:47.689Z,100219.89
2024-05-09T13:45:21.868Z,100221.06
2024-05-09T13:47:53.202Z,100220.81
2024-05-09T13:50:33.171Z,100217.81
2024-05-09T13:53:08.875Z,100212.52
2024-05-09T13:55:40.722Z,100216.64
2024-05-09T13:58:12.702Z,100216.95
2024-05-09T14:00:47.908Z,100213.69
2024-05-09T14:03:21.704Z,100213.80
2024-05-09T14:05:52.976Z,100212.14
2024-05-09T14:08:24.681Z,100207.95
2024-05-09T14:10:56.276Z,100214.08
2024-05-09T14:13:27.195Z,100215.27
2024-05-09T14:15:57.719Z,100211.23
2024-05-09T14:18:29.623Z,100211.41
2024-05-09T14:20:59.977Z,100213.92
2024-05-09T14:23:31.439Z,100211.58
2024-05-09T14:26:01.759Z,100210.39
2024-05-09T14:28:33.470Z,100207.98
2024-05-09T14:31:03.772Z,100206.99
2024-05-09T14:33:36.607Z,100207.85
2024-05-09T14:36:07.240Z,100207.84
2024-05-09T14:38:38.809Z,100204.98
2024-05-09T14:41:10.565Z,100200.36
2024-05-09T14:43:42.234Z,100197.96
2024-05-09T14:46:12.672Z,100192.77
2024-05-09T14:48:44.215Z,100188.73
2024-05-09T14:51:14.618Z,100188.00
2024-05-09T14:53:45.972Z,100183.84
2024-05-09T14:56:16.710Z,100179.47
2024-05-09T14:58:48.150Z,100177.46
2024-05-09T15:01:20.610Z,100176.30
2024-05-09T15:03:52.665Z,100177.27
2024-05-09T15:06:23.048Z,100177.75
2024-05-09T15:08:55.550Z,100177.47
2024-05-09T15:11:25.830Z,100173.82
2024-05-09T15:13:57.378Z,100173.79
2024-05-09T15:16:27.939Z,100167.81
2024-05-09T15:18:59.892Z,100169.05
2024-05-09T15:21:31.329Z,100166.84
2024-05-09T15:24:03.068Z,100163.48
2024-05-09T15:26:33.514Z,100159.11
2024-05-09T15:29:05.299Z,100156.91
2024-05-09T15:31:36.066Z,100156.98
2024-05-09T15:34:08.708Z,100156.55
2024-05-09T15:36:41.019Z,100155.40
2024-05-09T15:39:13.405Z,100154.36
2024-05-09T15:41:44.147Z,100155.41
2024-05-09T15:44:16.514Z,100152.58
2024-05-09T15:46:47.420Z,100145.42
2024-05-09T15:49:19.440Z,100146.24
2024-05-09T15:51:49.973Z,100145.64
2024-05-09T15:54:22.943Z,100145.70
2024-05-09T15:56:54.586Z,100146.66
2024-05-09T15:59:26.348Z,100139.56
2024-05-09T16:01:57.270Z,100137.86
2024-05-09T16:04:29.280Z,100139.12
2024-05-09T16:06:59.713Z,100135.59
2024-05-09T16:09:31.770Z,100133.89
2024-05-09T16:12:02.168Z,100136.23
2024-05-09T16:14:34.137Z,100138.11
2024-05-09T16:17:04.711Z,100136.45
2024-05-09T16:19:36.406Z,100135.40
2024-05-09T16:22:06.586Z,100135.63
2024-05-09T16:24:39.722Z,100134.89
2024-05-09T16:27:09.959Z,100135.17
2024-05-09T16:29:41.797Z,100132.77
2024-05-09T16:32:12.157Z,100134.11
2024-05-09T16:34:44.080Z,100133.98
2024-05-09T16:37:14.659Z,100133.16
2024-05-09T16:39:46.855Z,100133.23
2024-05-09T16:42:17.115Z,100135.33
2024-05-09T16:44:49.073Z,100136.30
2024-05-09T16:47:19.355Z,100134.30
2024-05-09T16:49:51.149Z,100137.38
2024-05-09T16:52:21.503Z,100138.63
2024-05-09T16:54:54.002Z,100137.60
2024-05-09T16:57:24.542Z,100138.48
2024-05-09T16:59:56.327Z,100138.58
2024-05-09T17:02:27.129Z,100134.30
2024-05-09T17:04:59.108Z,100128.06
2024-05-09T17:07:29.661Z,100132.58
2024-05-09T17:10:01.853Z,100135.52
2024-05-09T17:12:32.391Z,100137.31
2024-05-09T17:15:04.416Z,100136.80
2024-05-09T17:17:34.655Z,100133.10
2024-05-09T17:20:08.571Z,100133.52
2024-05-09T17:22:44.310Z,100136.69
2024-05-09T17:25:14.633Z,100134.35
2024-05-09T17:27:46.579Z,100132.70
2024-05-09T17:30:28.072Z,100134.16
2024-05-09T17:33:06.079Z,100133.05
2024-05-09T17:35:36.828Z,100129.56
2024-05-09T17:38:08.706Z,100132.17
2024-05-09T17:40:40.095Z,100130.75
2024-05-09T17:43:12.163Z,100133.60
2024-05-09T17:45:42.732Z,100128.91
2024-05-09T17:48:15.159Z,100130.02
2024-05-09T17:50:46.034Z,100130.59
2024-05-09T17:53:17.683Z,100134.73
2024-05-09T17:55:49.050Z,100133.27
2024-05-09T17:58:20.927Z,100132.09
2024-05-09T18:00:51.785Z,100135.44
2024-05-09T18:03:23.841Z,100138.43
2024-05-09T18:05:54.693Z,100141.89
2024-05-09T18:08:26.794Z,100144.95
2024-05-09T18:10:57.371Z,100146.20
2024-05-09T18:13:29.290Z,100140.86
2024-05-09T18:15:59.642Z,100146.56
2024-05-09T18:18:31.557Z,100144.83
2024-05-09T18:21:02.023Z,100144.72
2024-05-09T18:23:34.675Z,100150.61
2024-05-09T18:26:06.049Z,100152.00
2024-05-09T18:28:37.481Z,100154.05
2024-05-09T18:31:07.737Z,100155.35
2024-05-09T18:33:39.456Z,100159.11
2024-05-09T18:36:10.797Z,100163.67
2024-05-09T18:38:42.376Z,100166.26
2024-05-09T18:41:12.718Z,100175.11
2024-05-09T18:43:45.497Z,100172.46
2024-05-09T18:46:20.616Z,100173.80
2024-05-09T18:48:51.270Z,100179.96
2024-05-09T18:51:23.498Z,100180.92
2024-05-09T18:53:55.240Z,100180.48
2024-05-09T18:56:27.212Z,100185.89
2024-05-09T18:58:57.662Z,100186.91
2024-05-09T19:01:29.692Z,100188.73
2024-05-09T19:04:00.451Z,100171.27
2024-05-09T19:06:32.564Z,100172.89
2024-05-09T19:09:03.352Z,100174.88
2024-05-09T19:11:35.435Z,100176.42
2024-05-09T19:14:07.521Z,100180.51
2024-05-09T19:16:39.127Z,100178.83
2024-05-09T19:19:10.385Z,100180.23
2024-05-09T19:21:43.017Z,100187.55
2024-05-09T19:24:13.790Z,100184.51
2024-05-09T19:26:45.449Z,100182.89
2024-05-09T19:29:15.979Z,100185.70
2024-05-09T19:31:47.967Z,100187.71
2024-05-09T19:34:18.520Z,100188.57
2024-05-09T19:36:50.505Z,100192.34
2024-05-09T19:39:21.067Z,100191.72
2024-05-09T19:41:52.617Z,100194.52
2024-05-09T19:44:23.353Z,100196.55
2024-05-09T19:46:55.099Z,100197.08
2024-05-09T19:49:26.048Z,100201.79
2024-05-09T19:51:57.736Z,100203.11
2024-05-09T19:54:28.331Z,100200.91
2024-05-09T19:56:59.890Z,100204.08
2024-05-09T19:59:30.511Z,100208.19
2024-05-09T20:02:02.163Z,100206.81
2024-05-09T20:04:33.132Z,100202.41
2024-05-09T20:07:04.995Z,100200.49
2024-05-09T20:09:35.416Z,100200.55
2024-05-09T20:12:07.143Z,100195.88
2024-05-09T20:14:38.694Z,100201.06
2024-05-09T20:17:10.356Z,100196.73
2024-05-09T20:19:43.033Z,100199.83
2024-05-09T20:22:15.126Z,100195.47
2024-05-09T20:24:45.634Z,100196.58
2024-05-09T20:27:17.869Z,100196.66
2024-05-09T20:29:48.325Z,100197.60
2024-05-09T20:32:20.083Z,100195.52
2024-05-09T20:34:51.894Z,100197.66
2024-05-09T20:37:23.695Z,100198.32
2024-05-09T20:39:54.611Z,100196.20
2024-05-09T20:42:26.599Z,100194.43
2024-05-09T20:44:56.913Z,100192.61
2024-05-09T20:47:28.892Z,100189.36
2024-05-09T20:49:59.528Z,100188.75
2024-05-09T20:52:31.375Z,100189.95
2024-05-09T20:55:01.850Z,100195.78
2024-05-09T20:57:33.618Z,100191.36
2024-05-09T21:00:12.044Z,100190.40
2024-05-09T21:02:47.429Z,100192.38
2024-05-09T21:05:19.209Z,100196.17
2024-05-09T21:07:51.143Z,100200.67
2024-05-09T21:10:22.863Z,100199.36
2024-05-09T21:12:55.128Z,100195.59
2024-05-09T21:15:25.716Z,100193.66
2024-05-09T21:17:57.420Z,100195.16
2024-05-09T21:20:31.675Z,100195.66
2024-05-09T21:23:04.870Z,100195.75
2024-05-09T21:25:35.272Z,100192.02
2024-05-09T21:28:07.204Z,100190.67
2024-05-09T21:30:41.840Z,100185.10
2024-05-09T21:33:15.715Z,100192.17
2024-05-09T21:35:46.318Z,100186.35
2024-05-09T21:38:17.963Z,100191.14
2024-05-09T21:40:48.221Z,100194.36
2024-05-09T21:43:20.206Z,100190.43
2024-05-09T21:45:50.867Z,100189.71
2024-05-09T21:48:22.474Z,100190.49
2024-05-09T21:50:53.054Z,100194.11
2024-05-09T21:53:24.513Z,100194.61
2024-05-09T21:55:54.837Z,100196.36
2024-05-09T21:58:26.507Z,100197.48
2024-05-09T22:00:57.380Z,100195.70
2024-05-09T22:03:29.151Z,100195.65
2024-05-09T22:06:00.132Z,100195.19
2024-05-09T22:08:31.679Z,100195.73
2024-05-09T22:11:02.393Z,100196.40
2024-05-09T22:13:34.268Z,100192.55
2024-05-09T22:16:05.041Z,100190.30
2024-05-09T22:18:36.938Z,100191.48
2024-05-09T22:21:07.393Z,100186.39
2024-05-09T22:23:38.915Z,100184.33
2024-05-09T22:26:09.396Z,100185.15
2024-05-09T22:28:40.823Z,100185.82
2024-05-09T22:31:11.129Z,100186.04
2024-05-09T22:33:45.542Z,100192.66
2024-05-09T22:36:19.062Z,100190.23
2024-05-09T22:38:49.280Z,100190.50
2024-05-09T22:41:21.149Z,100189.04
2024-05-09T22:43:51.477Z,100190.71
2024-05-09T22:46:23.448Z,100191.70
2024-05-09T22:48:53.979Z,100190.39
2024-05-09T22:51:25.719Z,100191.41
2024-05-09T22:53:56.270Z,100193.48
2024-05-09T22:56:28.524Z,100191.85
2024-05-09T22:59:00.164Z,100188.59
2024-05-09T23:01:31.926Z,100187.80
2024-05-09T23:04:02.866Z,100189.36
2024-05-09T23:06:34.665Z,100184.59
2024-05-09T23:09:05.500Z,100187.52
2024-05-09T23:11:40.856Z,100186.37
2024-05-09T23:14:13.474Z,100186.99
2024-05-09T23:16:43.773Z,100182.73
2024-05-09T23:19:15.622Z,100183.74
2024-05-09T23:21:45.771Z,100182.79
2024-05-09T23:24:17.753Z,100179.85
2024-05-09T23:26:47.761Z,100179.42
2024-05-09T23:29:19.308Z,100178.36
2024-05-09T23:31:49.941Z,100175.58
2024-05-09T23:34:21.647Z,100175.95
2024-05-09T23:36:52.062Z,100174.41
2024-05-09T23:39:23.783Z,100170.81
2024-05-09T23:41:54.209Z,100167.04
2024-05-09T23:44:25.869Z,100164.41
2024-05-09T23:46:56.040Z,100164.46
2024-05-09T23:49:27.686Z,100162.98
2024-05-09T23:51:57.862Z,100164.42
2024-05-09T23:54:29.613Z,100167.82
2024-05-09T23:56:59.646Z,100167.55
2024-05-09T23:59:31.706Z,100171.98
